»·PEaware :: ASA497 KBOI-KSEA

ASA497 :: KBOI-KSEA

FLIGHT INFORMATION

Flight Status: Arrived
Operator:
Alaska Airlines
More flights by this operator :: More flights under this callsign
Pilot: Cooper L. (8467)
Aircraft: BOEING 737-200
(B732)
More flights by this aircraft type
Origin: KBOI Boise Air Terminal/Gowen
United States
Destination: KSEA Seattle-Tacoma Intl
United States
More flights between these airports :: More routes between these airports
Route: BOI3 BOI J54 BKE PDT CHINS3
File this flight plan on PilotEdge
Remarks:
Altitude:
(Current/Filed)
28,000ft
Speed:
(Current/Filed)
450kts
Departed: 29-Apr-18 01:03 PM
Arrived: 29-Apr-18 02:13 PM
Distance/Time
Traveled:
346nm/1:10
Distance/Time
To Go:
Arrived

Flight Plot

Page will automatically refresh every two minutes.

Flight plan parsing failed; only flown route is shown


Map Options




Map Legend


Flown Route
Filed Route
Departure Airport
Arrival Airport
Navaid (VOR, NDB)
Fix

Horizontal Profiles

Position Reports

Time Latitude Longitude Heading Altitude Ground
Speed
29-Apr-18 12:45 43.567102 -116.222310 100 2849ft 0kts
29-Apr-18 12:46 43.567102 -116.222310 100 2849ft 0kts
29-Apr-18 12:47 43.567102 -116.222310 100 2849ft 0kts
29-Apr-18 12:48 43.567102 -116.222310 100 2849ft 0kts
29-Apr-18 12:50 43.567102 -116.222310 100 2849ft 0kts
29-Apr-18 12:50 43.567102 -116.222310 100 2849ft 0kts
29-Apr-18 12:51 43.567102 -116.222310 100 2849ft 0kts
29-Apr-18 12:52 43.567102 -116.222310 100 2849ft 0kts
29-Apr-18 12:53 43.567102 -116.222310 100 2849ft 0kts
29-Apr-18 12:54 43.567102 -116.222310 100 2849ft 0kts
29-Apr-18 12:55 43.567137 -116.222584 99 2849ft 2kts
29-Apr-18 12:56 43.567402 -116.222701 205 2849ft 0kts
29-Apr-18 12:57 43.567402 -116.222701 205 2849ft 0kts
29-Apr-18 12:58 43.567123 -116.222878 204 2849ft 10kts
29-Apr-18 12:59 43.563579 -116.213809 114 2860ft 37kts
29-Apr-18 13:00 43.559670 -116.202415 129 2872ft 15kts
29-Apr-18 13:01 43.559039 -116.204018 294 2870ft 16kts
29-Apr-18 13:02 43.575578 -116.251873 293 3981ft 212kts
29-Apr-18 13:03 43.596826 -116.328126 291 6778ft 262kts
29-Apr-18 13:04 43.623985 -116.425020 291 10123ft 279kts
29-Apr-18 13:05 43.653014 -116.526148 292 13122ft 292kts
29-Apr-18 13:06 43.658897 -116.633068 233 15762ft 306kts
29-Apr-18 13:07 43.580496 -116.640219 138 18060ft 333kts
29-Apr-18 13:08 43.529588 -116.532798 102 20100ft 349kts
29-Apr-18 13:09 43.536933 -116.398384 83 21938ft 361kts
29-Apr-18 13:10 43.547673 -116.260966 80 23575ft 371kts
29-Apr-18 13:11 43.620685 -116.176889 355 24931ft 370kts
29-Apr-18 13:12 43.689621 -116.260995 281 26166ft 355kts
29-Apr-18 13:13 43.721413 -116.390965 302 27344ft 369kts
29-Apr-18 13:14 43.796008 -116.493502 314 27984ft 394kts
29-Apr-18 13:15 43.879741 -116.600182 315 27987ft 426kts
29-Apr-18 13:16 43.975612 -116.703993 318 27992ft 451kts
29-Apr-18 13:17 44.070620 -116.817073 315 27990ft 451kts
29-Apr-18 13:18 44.163652 -116.932834 315 27990ft 449kts
29-Apr-18 13:19 44.255095 -117.048707 316 27989ft 446kts
29-Apr-18 13:20 44.345986 -117.164807 316 27990ft 444kts
29-Apr-18 13:21 44.436764 -117.281368 316 27991ft 445kts
29-Apr-18 13:22 44.527658 -117.398815 316 27990ft 447kts
29-Apr-18 13:23 44.618968 -117.517551 316 27990ft 449kts
29-Apr-18 13:24 44.710087 -117.635629 316 27990ft 450kts
29-Apr-18 13:25 44.800898 -117.756453 315 27991ft 451kts
29-Apr-18 13:26 44.890493 -117.880152 315 27991ft 452kts
29-Apr-18 13:27 44.982281 -118.000489 316 27991ft 453kts
29-Apr-18 13:28 45.075102 -118.120466 316 28009ft 454kts
29-Apr-18 13:29 45.168126 -118.239575 317 28018ft 457kts
29-Apr-18 13:30 45.261982 -118.361193 316 28017ft 459kts
29-Apr-18 13:31 45.355667 -118.483621 316 28012ft 460kts
29-Apr-18 13:32 45.449778 -118.607411 316 28009ft 462kts
29-Apr-18 13:33 45.541410 -118.730129 315 28009ft 463kts
29-Apr-18 13:34 45.635444 -118.855484 316 28008ft 463kts
29-Apr-18 13:35 45.729431 -118.980731 317 28010ft 462kts
29-Apr-18 13:36 45.822645 -119.105437 317 28003ft 459kts
29-Apr-18 13:37 45.907159 -119.239759 293 28006ft 458kts
29-Apr-18 13:38 45.970284 -119.397088 307 27996ft 455kts
29-Apr-18 13:39 46.047522 -119.539058 310 27556ft 444kts
29-Apr-18 13:40 46.122306 -119.670272 309 26022ft 436kts
29-Apr-18 13:41 46.198895 -119.802326 313 24579ft 426kts
29-Apr-18 13:42 46.276978 -119.928350 311 23987ft 423kts
29-Apr-18 13:43 46.353631 -120.058825 310 23983ft 430kts
29-Apr-18 13:44 46.429712 -120.192911 309 23981ft 432kts
29-Apr-18 13:45 46.504703 -120.326396 309 23610ft 418kts
29-Apr-18 13:46 46.576932 -120.456670 306 22060ft 411kts
29-Apr-18 13:47 46.641484 -120.591271 305 20674ft 402kts
29-Apr-18 13:48 46.702733 -120.721138 304 19403ft 395kts
29-Apr-18 13:49 46.764016 -120.850962 304 18553ft 390kts
29-Apr-18 13:50 46.824896 -120.979496 304 17725ft 383kts
29-Apr-18 13:51 46.883013 -121.102559 304 16453ft 370kts
29-Apr-18 13:52 46.940357 -121.224762 305 15041ft 363kts
29-Apr-18 13:53 46.996875 -121.345409 305 13584ft 361kts
29-Apr-18 13:54 47.053234 -121.466576 305 12249ft 358kts
29-Apr-18 13:55 47.106958 -121.582556 306 11943ft 329kts
29-Apr-18 13:56 47.153887 -121.683307 304 11365ft 293kts
29-Apr-18 13:57 47.200464 -121.780343 303 10004ft 289kts
29-Apr-18 13:58 47.244081 -121.877844 304 8737ft 284kts
29-Apr-18 13:59 47.286548 -121.973023 304 7952ft 262kts
29-Apr-18 14:00 47.322990 -122.054961 304 7968ft 220kts
29-Apr-18 14:01 47.361649 -122.137107 324 7170ft 258kts
29-Apr-18 14:02 47.428114 -122.151779 358 5926ft 250kts
29-Apr-18 14:03 47.497035 -122.156062 358 4300ft 242kts
29-Apr-18 14:04 47.555536 -122.160055 358 3969ft 237kts
29-Apr-18 14:05 47.624037 -122.166206 356 3821ft 258kts
29-Apr-18 14:06 47.668085 -122.232575 259 3006ft 283kts
29-Apr-18 14:07 47.633313 -122.322686 195 2818ft 247kts
29-Apr-18 14:08 47.577081 -122.316826 176 2222ft 135kts
29-Apr-18 14:09 47.539643 -122.317488 181 1654ft 144kts
29-Apr-18 14:10 47.499959 -122.317585 181 941ft 124kts
29-Apr-18 14:11 47.464804 -122.317885 179 381ft 119kts
29-Apr-18 14:12 47.448650 -122.317233 157 336ft 32kts
29-Apr-18 14:13 47.447634 -122.316453 148 335ft 0kts
29-Apr-18 14:14 47.446769 -122.315243 119 335ft 22kts
29-Apr-18 14:15 47.444053 -122.306310 10 335ft 21kts
29-Apr-18 14:16 47.447641 -122.304079 127 335ft 13kts
29-Apr-18 14:17 47.447479 -122.301314 336 335ft 0kts
29-Apr-18 14:18 47.447479 -122.301313 337 335ft 0kts

Navigation Log

Ident Type
Flight plan parsing failed, navigation log unavailable